Time;durP1;ratioP1;P1;durP2;ratioP2;P2;SDS_P1;SDS_P2;PMS_P1;PMS_P2;Temp;Humidity;BMP_temperature;BMP_pressure;BME280_temperature;BME280_humidity;BME280_pressure;Samples;Min_cycle;Max_cycle;Signal;HPM_P1;HPM_P2
2023/06/22 00:02:13;;;;;;;4.43;2.10;;;20.60;1.00;;;;;;5096542;28;20255;-78
2023/06/22 00:04:38;;;;;;;2.93;2.23;;;20.60;1.00;;;;;;5096589;28;20229;-78
2023/06/22 00:07:04;;;;;;;2.90;2.20;;;20.60;1.00;;;;;;5096729;28;20181;-78
2023/06/22 00:09:30;;;;;;;2.60;1.93;;;20.60;1.00;;;;;;5095237;28;20181;-78
2023/06/22 00:11:56;;;;;;;2.60;1.97;;;20.60;1.00;;;;;;5095093;28;20189;-78
2023/06/22 00:14:21;;;;;;;5.33;2.63;;;20.50;1.00;;;;;;5095051;28;20194;-78
2023/06/22 00:16:48;;;;;;;3.27;2.20;;;20.60;1.00;;;;;;5096132;28;20245;-78
2023/06/22 00:19:19;;;;;;;3.93;2.30;;;20.60;1.00;;;;;;5095027;28;20170;-78
2023/06/22 00:21:46;;;;;;;3.10;2.23;;;20.60;1.00;;;;;;5094907;28;20582;-78
2023/06/22 00:24:12;;;;;;;2.63;2.20;;;20.60;1.00;;;;;;5094258;28;20564;-78
2023/06/22 00:26:38;;;;;;;3.00;2.13;;;20.40;1.00;;;;;;5096866;28;20151;-78
2023/06/22 00:29:04;;;;;;;4.80;2.73;;;20.60;1.00;;;;;;5096416;28;20695;-78
2023/06/22 00:31:29;;;;;;;4.53;2.57;;;20.60;1.00;;;;;;5096567;28;20178;-78
2023/06/22 00:33:55;;;;;;;3.50;2.20;;;20.60;1.00;;;;;;5094496;28;20258;-77
2023/06/22 00:36:20;;;;;;;2.90;2.63;;;20.60;1.00;;;;;;5093249;28;20293;-77
2023/06/22 00:38:46;;;;;;;4.17;2.63;;;20.60;1.00;;;;;;5095023;28;20175;-80
2023/06/22 00:41:11;;;;;;;4.47;2.60;;;20.60;1.00;;;;;;5094279;28;20180;-77
2023/06/22 00:43:37;;;;;;;5.03;2.80;;;20.60;1.00;;;;;;5094373;28;20198;-76
2023/06/22 00:46:03;;;;;;;3.70;2.50;;;20.60;1.00;;;;;;5095972;28;20177;-77
2023/06/22 00:48:28;;;;;;;3.80;2.80;;;20.60;1.00;;;;;;5096106;28;20170;-77
2023/06/22 00:50:55;;;;;;;4.67;2.93;;;20.50;1.00;;;;;;5095879;28;20181;-78
2023/06/22 00:53:21;;;;;;;3.50;2.40;;;20.50;1.00;;;;;;5095258;28;20198;-78
2023/06/22 00:55:47;;;;;;;5.00;2.10;;;20.50;1.00;;;;;;5094133;28;20240;-75
2023/06/22 00:58:13;;;;;;;4.07;2.80;;;20.50;1.00;;;;;;5094944;28;20575;-77
2023/06/22 01:00:40;;;;;;;5.20;2.90;;;20.40;1.00;;;;;;5093967;28;20257;-77
2023/06/22 01:03:08;;;;;;;3.57;2.47;;;20.40;1.00;;;;;;5094904;28;20223;-78
2023/06/22 01:05:35;;;;;;;5.67;3.33;;;20.40;1.00;;;;;;5095437;28;20167;-78
2023/06/22 01:08:07;;;;;;;3.63;2.73;;;20.40;1.00;;;;;;5094900;28;20170;-77
2023/06/22 01:10:49;;;;;;;5.37;3.27;;;20.40;1.00;;;;;;5095114;28;20263;-77
2023/06/22 01:13:37;;;;;;;5.20;3.03;;;20.40;1.00;;;;;;5093339;28;20210;-77
2023/06/22 01:16:09;;;;;;;5.70;3.23;;;20.30;1.00;;;;;;5095359;28;20159;-78
2023/06/22 01:18:38;;;;;;;5.63;2.87;;;20.30;1.00;;;;;;5095783;28;20622;-78
2023/06/22 01:21:08;;;;;;;6.43;2.90;;;20.30;1.00;;;;;;5093436;28;20622;-77
2023/06/22 01:23:59;;;;;;;5.57;3.20;;;20.30;1.00;;;;;;5093413;28;20677;-79
2023/06/22 01:26:42;;;;;;;4.17;2.80;;;20.20;1.00;;;;;;5094996;28;20186;-78
2023/06/22 01:29:14;;;;;;;6.07;3.10;;;20.20;1.00;;;;;;5094952;28;20170;-79
2023/06/22 01:31:41;;;;;;;3.43;3.00;;;20.20;1.00;;;;;;5094776;28;20176;-78
2023/06/22 01:34:08;;;;;;;6.33;3.07;;;20.20;1.00;;;;;;5094439;28;20206;-78
2023/06/22 01:36:35;;;;;;;3.97;2.73;;;20.10;1.00;;;;;;5096611;28;20194;-79
2023/06/22 01:39:03;;;;;;;6.30;3.10;;;20.10;1.00;;;;;;5094386;28;20264;-78
2023/06/22 01:41:31;;;;;;;6.97;3.07;;;20.10;1.00;;;;;;5097715;28;20170;-77
2023/06/22 01:43:57;;;;;;;5.97;3.00;;;20.10;1.00;;;;;;5110587;28;20194;-78
2023/06/22 01:46:23;;;;;;;3.93;2.87;;;20.10;1.00;;;;;;5097107;28;20217;-78
2023/06/22 01:48:50;;;;;;;4.17;3.17;;;20.10;1.00;;;;;;5099476;28;20182;-77
2023/06/22 01:51:16;;;;;;;3.67;3.00;;;20.00;1.00;;;;;;5106709;28;20185;-77
2023/06/22 01:53:42;;;;;;;6.20;3.13;;;20.00;1.00;;;;;;5105470;28;20214;-78
2023/06/22 01:56:08;;;;;;;8.63;3.63;;;20.00;1.00;;;;;;5095963;28;20166;-77
2023/06/22 01:58:35;;;;;;;3.60;2.97;;;20.00;1.00;;;;;;5094742;28;20537;-77
2023/06/22 02:01:12;;;;;;;6.80;3.40;;;20.00;1.00;;;;;;5093373;28;20170;-78
2023/06/22 02:03:43;;;;;;;4.83;3.13;;;20.00;1.00;;;;;;5093175;28;20202;-78
2023/06/22 02:06:21;;;;;;;5.60;3.60;;;20.00;1.00;;;;;;5094372;28;20155;-77
2023/06/22 02:08:55;;;;;;;4.40;2.70;;;20.20;1.00;;;;;;5094480;28;20216;-78
2023/06/22 02:11:22;;;;;;;3.97;2.60;;;20.00;1.00;;;;;;5092988;28;20174;-78
2023/06/22 02:13:48;;;;;;;3.77;3.10;;;20.00;1.00;;;;;;5093808;28;20209;-78
2023/06/22 02:16:15;;;;;;;3.73;2.70;;;20.00;1.00;;;;;;5094892;28;20181;-78
2023/06/22 02:18:50;;;;;;;7.60;3.50;;;20.00;1.00;;;;;;5094313;28;20162;-78
2023/06/22 02:21:16;;;;;;;4.77;2.70;;;20.00;1.00;;;;;;5092752;28;20530;-78
2023/06/22 02:23:42;;;;;;;5.00;2.93;;;20.00;1.00;;;;;;5093023;28;20195;-78
2023/06/22 02:26:08;;;;;;;4.73;2.93;;;19.90;1.00;;;;;;5093057;28;20182;-77
2023/06/22 02:28:33;;;;;;;7.73;3.57;;;19.90;1.00;;;;;;5093133;28;20593;-79
2023/06/22 02:30:59;;;;;;;4.40;3.07;;;20.00;1.00;;;;;;5094456;28;20166;-79
2023/06/22 02:33:25;;;;;;;4.63;3.27;;;19.90;1.00;;;;;;5094352;28;20286;-78
2023/06/22 02:35:50;;;;;;;7.47;3.20;;;19.90;1.00;;;;;;5094366;28;20162;-78
2023/06/22 02:38:17;;;;;;;3.73;3.43;;;20.00;1.00;;;;;;5094558;28;20177;-78
2023/06/22 02:40:42;;;;;;;7.17;3.67;;;19.80;1.00;;;;;;5094405;28;20170;-78
2023/06/22 02:43:08;;;;;;;7.40;3.37;;;19.80;1.00;;;;;;5094932;28;20263;-78
2023/06/22 02:45:33;;;;;;;5.97;3.30;;;19.80;1.00;;;;;;5095025;28;20238;-79
2023/06/22 02:47:59;;;;;;;5.80;3.37;;;19.90;1.00;;;;;;5094659;28;20638;-78
2023/06/22 02:50:25;;;;;;;5.43;3.40;;;19.80;1.00;;;;;;5094855;28;20185;-79
2023/06/22 02:52:50;;;;;;;5.83;3.80;;;19.90;1.00;;;;;;5096346;28;20289;-79
2023/06/22 02:55:16;;;;;;;5.33;3.50;;;19.80;1.00;;;;;;5095281;28;20179;-79
2023/06/22 02:57:43;;;;;;;8.80;4.17;;;19.80;1.00;;;;;;5113940;28;20185;-79
2023/06/22 03:00:19;;;;;;;5.43;3.27;;;19.70;1.00;;;;;;5117432;28;20166;-80
2023/06/22 03:02:46;;;;;;;6.93;3.53;;;19.80;1.00;;;;;;5100991;28;20194;-78
2023/06/22 03:05:13;;;;;;;4.20;3.27;;;19.70;1.00;;;;;;5096981;28;20181;-79
2023/06/22 03:07:42;;;;;;;5.07;3.70;;;19.70;1.00;;;;;;5099569;28;20170;-77
2023/06/22 03:10:12;;;;;;;6.07;3.43;;;19.70;1.00;;;;;;5097625;28;20178;-78
2023/06/22 03:12:39;;;;;;;5.30;3.43;;;19.70;1.00;;;;;;5099278;28;20194;-79
2023/06/22 03:15:09;;;;;;;4.17;3.60;;;19.70;1.00;;;;;;5098524;28;20178;-78
2023/06/22 03:17:36;;;;;;;5.43;3.70;;;19.70;1.00;;;;;;5098406;28;20198;-79
2023/06/22 03:20:08;;;;;;;6.47;4.10;;;19.60;1.00;;;;;;5098082;28;20182;-78
2023/06/22 03:22:35;;;;;;;6.43;4.13;;;19.60;1.00;;;;;;5099025;28;20676;-78
2023/06/22 03:25:01;;;;;;;10.37;4.20;;;19.60;1.00;;;;;;5098932;28;20273;-78
2023/06/22 03:27:26;;;;;;;6.70;4.03;;;19.40;1.00;;;;;;5098828;28;20202;-78
2023/06/22 03:29:52;;;;;;;6.23;4.17;;;19.50;1.00;;;;;;5098433;28;20174;-77
2023/06/22 03:32:17;;;;;;;5.97;3.97;;;19.50;1.00;;;;;;5098579;28;20205;-78
2023/06/22 03:34:46;;;;;;;5.90;3.97;;;19.60;1.00;;;;;;5097406;28;20201;-79
2023/06/22 03:37:14;;;;;;;6.87;4.07;;;19.60;1.00;;;;;;5098083;28;20656;-79
2023/06/22 03:39:40;;;;;;;6.47;4.20;;;19.60;1.00;;;;;;5098576;28;20185;-77
2023/06/22 03:42:06;;;;;;;5.37;3.80;;;19.60;1.00;;;;;;5097984;28;20182;-78
2023/06/22 03:44:31;;;;;;;7.17;3.70;;;19.50;1.00;;;;;;5098788;28;20201;-78
2023/06/22 03:46:57;;;;;;;3.73;3.33;;;19.60;12.60;;;;;;5114832;28;20678;-78
2023/06/22 03:49:22;;;;;;;3.80;2.80;;;19.60;15.70;;;;;;5098795;28;20556;-78
2023/06/22 03:51:48;;;;;;;4.97;3.83;;;19.50;18.90;;;;;;5098396;28;20163;-79
2023/06/22 03:54:13;;;;;;;5.57;4.00;;;19.70;19.00;;;;;;5099011;28;20507;-79
2023/06/22 03:56:39;;;;;;;5.57;3.97;;;19.60;23.50;;;;;;5096737;28;20197;-78
2023/06/22 03:59:05;;;;;;;4.90;4.40;;;19.60;24.00;;;;;;5098625;28;20178;-79
2023/06/22 04:01:30;;;;;;;7.97;3.90;;;19.60;26.10;;;;;;5097217;28;20177;-78
2023/06/22 04:03:56;;;;;;;10.93;6.17;;;19.70;19.60;;;;;;5098234;28;20198;-78
2023/06/22 04:06:22;;;;;;;9.10;5.90;;;19.70;17.60;;;;;;5096981;28;20180;-78
2023/06/22 04:08:50;;;;;;;7.77;5.13;;;19.70;9.80;;;;;;5098520;28;20220;-78
2023/06/22 04:11:19;;;;;;;7.20;3.93;;;19.70;1.70;;;;;;5096758;28;20196;-79
2023/06/22 04:13:44;;;;;;;6.97;4.30;;;19.70;12.10;;;;;;5111164;28;20212;-78
2023/06/22 04:16:10;;;;;;;6.20;4.30;;;19.80;16.40;;;;;;5096505;28;20229;-78
2023/06/22 04:18:36;;;;;;;9.77;6.43;;;19.80;9.50;;;;;;5095584;28;20274;-79
2023/06/22 04:21:02;;;;;;;6.73;4.47;;;19.80;1.00;;;;;;5096908;28;20174;-79
2023/06/22 04:23:28;;;;;;;5.63;4.10;;;19.90;1.00;;;;;;5096542;28;20197;-78
2023/06/22 04:25:53;;;;;;;6.87;4.57;;;19.90;1.00;;;;;;5095610;28;20190;-79
2023/06/22 04:28:19;;;;;;;5.50;4.63;;;19.90;1.00;;;;;;5097025;28;20274;-78
2023/06/22 04:30:47;;;;;;;7.70;4.33;;;20.00;1.00;;;;;;5095735;28;20661;-79
2023/06/22 04:33:14;;;;;;;6.10;4.03;;;20.00;1.00;;;;;;5096386;28;20288;-78
2023/06/22 04:35:42;;;;;;;4.17;3.60;;;20.00;5.10;;;;;;5096459;28;20194;-78
2023/06/22 04:38:08;;;;;;;6.43;4.33;;;20.00;7.50;;;;;;5096632;28;20182;-79
2023/06/22 04:40:33;;;;;;;5.97;3.53;;;20.00;11.20;;;;;;5097150;28;20599;-79
2023/06/22 04:43:02;;;;;;;5.73;3.80;;;20.00;28.80;;;;;;5096147;28;20202;-78
2023/06/22 04:45:28;;;;;;;6.83;4.00;;;20.00;25.10;;;;;;5094796;28;20227;-78
2023/06/22 04:47:54;;;;;;;6.50;4.50;;;20.20;23.80;;;;;;5096789;28;20172;-78
2023/06/22 04:50:21;;;;;;;6.43;4.20;;;20.10;19.00;;;;;;5094432;28;20242;-79
2023/06/22 04:52:47;;;;;;;4.77;3.37;;;20.00;27.20;;;;;;5091099;28;20289;-79
2023/06/22 04:55:13;;;;;;;5.23;4.57;;;20.00;43.30;;;;;;5095609;28;20209;-79
2023/06/22 04:57:39;;;;;;;4.90;4.37;;;20.00;38.70;;;;;;5095912;28;20166;-79
2023/06/22 05:00:12;;;;;;;6.80;5.63;;;20.00;30.30;;;;;;5095742;28;20253;-79
2023/06/22 05:02:38;;;;;;;8.50;6.20;;;20.00;22.80;;;;;;5095467;28;20168;-78
2023/06/22 05:05:06;;;;;;;9.60;5.20;;;20.00;1.00;;;;;;5094502;28;20699;-79
2023/06/22 05:07:33;;;;;;;14.10;8.93;;;20.10;8.10;;;;;;5096120;28;20549;-78
2023/06/22 05:09:59;;;;;;;8.03;6.07;;;19.90;1.00;;;;;;5094757;28;20269;-78
2023/06/22 05:12:25;;;;;;;8.50;7.63;;;20.00;1.00;;;;;;5093359;28;20653;-78
2023/06/22 05:14:50;;;;;;;10.80;7.13;;;20.20;1.00;;;;;;5094729;28;20520;-77
2023/06/22 05:17:18;;;;;;;8.83;7.00;;;20.20;1.00;;;;;;5095031;28;20190;-78
2023/06/22 05:19:48;;;;;;;11.40;8.20;;;20.10;1.00;;;;;;5095379;28;20174;-77
2023/06/22 05:22:15;;;;;;;9.07;7.07;;;20.20;1.00;;;;;;5108355;28;20614;-77
2023/06/22 05:24:40;;;;;;;8.63;6.47;;;20.20;1.00;;;;;;5107692;28;20222;-76
2023/06/22 05:27:06;;;;;;;9.07;5.40;;;20.10;1.00;;;;;;5098582;28;20178;-77
2023/06/22 05:29:31;;;;;;;7.50;5.63;;;20.20;1.00;;;;;;5093584;28;20178;-77
2023/06/22 05:31:57;;;;;;;8.80;7.03;;;20.30;1.00;;;;;;5093479;28;20174;-78
2023/06/22 05:34:22;;;;;;;10.40;7.67;;;20.20;1.00;;;;;;5095178;28;20194;-77
2023/06/22 05:36:48;;;;;;;12.13;6.77;;;20.20;1.00;;;;;;5093797;28;20182;-76
2023/06/22 05:39:14;;;;;;;9.10;7.03;;;20.20;1.00;;;;;;5093992;28;20170;-78
2023/06/22 05:41:41;;;;;;;11.37;9.40;;;20.20;1.00;;;;;;5093127;28;20169;-77
2023/06/22 05:44:06;;;;;;;13.00;8.53;;;20.20;13.00;;;;;;5093009;28;20197;-76
2023/06/22 05:46:32;;;;;;;14.50;9.60;;;20.20;34.30;;;;;;5091639;28;20174;-76
2023/06/22 05:48:58;;;;;;;12.67;9.47;;;20.20;50.80;;;;;;5093137;28;20174;-77
2023/06/22 05:51:23;;;;;;;11.07;8.93;;;20.20;75.30;;;;;;5093020;28;20526;-76
2023/06/22 05:53:49;;;;;;;12.03;9.27;;;20.10;94.70;;;;;;5092646;28;20206;-75
2023/06/22 05:56:18;;;;;;;11.43;8.73;;;20.10;99.90;;;;;;5093183;28;20167;-76
2023/06/22 05:58:43;;;;;;;12.60;9.37;;;20.10;99.90;;;;;;5092644;28;20220;-76
2023/06/22 06:01:09;;;;;;;10.40;8.77;;;20.10;99.90;;;;;;5091255;28;20170;-76
2023/06/22 06:03:41;;;;;;;12.37;10.13;;;20.00;99.90;;;;;;5092958;28;20751;-77
2023/06/22 06:06:07;;;;;;;13.17;10.17;;;20.00;99.90;;;;;;5093629;28;20694;-76
2023/06/22 06:08:32;;;;;;;13.40;10.13;;;20.00;99.90;;;;;;5094904;28;20215;-78
2023/06/22 06:10:58;;;;;;;18.50;12.07;;;19.90;99.90;;;;;;5095524;28;20170;-76
2023/06/22 06:13:24;;;;;;;15.33;12.63;;;19.80;99.90;;;;;;5095514;28;20580;-77
2023/06/22 06:15:51;;;;;;;15.87;12.77;;;19.80;99.90;;;;;;5096882;28;20170;-78
2023/06/22 06:18:17;;;;;;;17.50;14.13;;;19.70;99.90;;;;;;5095974;28;20223;-77
2023/06/22 06:20:42;;;;;;;16.27;12.97;;;19.70;99.90;;;;;;5094495;28;20208;-78
2023/06/22 06:23:08;;;;;;;20.17;13.00;;;19.70;99.90;;;;;;5095794;28;20190;-77
2023/06/22 06:25:34;;;;;;;15.47;13.87;;;19.60;99.90;;;;;;5096483;28;20634;-77
2023/06/22 06:27:59;;;;;;;14.70;12.67;;;19.70;99.90;;;;;;5096278;28;20177;-77
2023/06/22 06:30:25;;;;;;;18.53;13.83;;;19.60;99.90;;;;;;5095662;28;20178;-77
2023/06/22 06:32:51;;;;;;;16.93;13.83;;;19.60;99.90;;;;;;5093736;28;20372;-77
2023/06/22 06:35:17;;;;;;;17.43;14.30;;;19.60;99.90;;;;;;5093594;28;20241;-78
2023/06/22 06:37:46;;;;;;;15.93;13.07;;;19.60;99.90;;;;;;5098718;28;20705;-78
2023/06/22 06:40:13;;;;;;;16.50;13.90;;;19.70;99.90;;;;;;5097778;28;20216;-78
2023/06/22 06:42:41;;;;;;;17.53;14.90;;;19.70;99.90;;;;;;5101308;28;20178;-78
2023/06/22 06:45:11;;;;;;;21.37;14.43;;;19.70;99.90;;;;;;5100394;28;20171;-78
2023/06/22 06:47:37;;;;;;;16.77;15.17;;;19.80;99.90;;;;;;5099496;28;20181;-78
2023/06/22 06:50:04;;;;;;;21.30;15.17;;;19.80;99.90;;;;;;5096341;28;20174;-77
2023/06/22 06:52:30;;;;;;;17.63;14.63;;;19.80;99.90;;;;;;5095969;28;20272;-77
2023/06/22 06:54:55;;;;;;;17.03;15.23;;;19.80;99.90;;;;;;5096027;28;20270;-77
2023/06/22 06:57:22;;;;;;;18.03;15.97;;;19.90;99.90;;;;;;5094839;28;20253;-77
2023/06/22 06:59:48;;;;;;;18.60;15.80;;;20.00;99.90;;;;;;5096417;28;20196;-76
2023/06/22 07:02:14;;;;;;;19.17;16.93;;;20.00;99.90;;;;;;5096065;28;20175;-76
2023/06/22 07:04:40;;;;;;;18.30;16.43;;;20.00;99.90;;;;;;5095999;28;20632;-75
2023/06/22 07:07:05;;;;;;;17.67;15.60;;;20.00;99.90;;;;;;5095892;28;20182;-77
2023/06/22 07:09:31;;;;;;;20.43;16.63;;;20.00;99.90;;;;;;5094534;28;20174;-76
2023/06/22 07:11:56;;;;;;;19.90;17.50;;;20.00;99.90;;;;;;5095801;28;20252;-75
2023/06/22 07:14:22;;;;;;;19.13;17.13;;;20.00;99.90;;;;;;5094541;28;20190;-77
2023/06/22 07:16:47;;;;;;;19.63;17.53;;;20.00;99.90;;;;;;5095932;28;20167;-76
2023/06/22 07:19:13;;;;;;;19.93;17.33;;;20.00;99.90;;;;;;5095863;28;20174;-75
2023/06/22 07:21:42;;;;;;;20.13;17.27;;;20.00;99.90;;;;;;5094259;28;20174;-76
2023/06/22 07:24:07;;;;;;;19.90;17.80;;;20.00;99.90;;;;;;5095512;28;20309;-77
2023/06/22 07:26:33;;;;;;;20.83;18.67;;;20.00;99.90;;;;;;5094337;28;20261;-77
2023/06/22 07:28:59;;;;;;;20.10;18.10;;;20.00;99.90;;;;;;5095879;28;20251;-77
2023/06/22 07:31:25;;;;;;;21.47;19.10;;;20.10;99.90;;;;;;5095517;28;20231;-76
2023/06/22 07:33:51;;;;;;;25.37;19.20;;;20.10;99.90;;;;;;5093795;28;20206;-76
2023/06/22 07:36:17;;;;;;;22.73;19.13;;;20.10;99.90;;;;;;5095457;28;20174;-77
2023/06/22 07:38:43;;;;;;;26.13;19.77;;;20.10;99.90;;;;;;5095314;28;20258;-76
2023/06/22 07:41:08;;;;;;;20.73;18.17;;;20.10;99.90;;;;;;5095338;28;20267;-76
2023/06/22 07:43:36;;;;;;;20.97;18.77;;;20.00;99.90;;;;;;5095001;28;20220;-77
2023/06/22 07:46:05;;;;;;;21.00;18.80;;;20.00;99.90;;;;;;5095283;28;20166;-77
2023/06/22 07:48:31;;;;;;;22.93;18.80;;;20.00;99.90;;;;;;5094894;28;20227;-75
2023/06/22 07:50:56;;;;;;;25.10;19.40;;;20.00;99.90;;;;;;5093262;28;20174;-75
2023/06/22 07:53:23;;;;;;;21.80;18.57;;;19.90;99.90;;;;;;5092157;28;20218;-76
2023/06/22 07:55:49;;;;;;;20.63;18.60;;;20.00;99.90;;;;;;5093609;28;20197;-76
2023/06/22 07:58:15;;;;;;;22.53;19.97;;;20.00;99.90;;;;;;5093628;28;20219;-76
2023/06/22 08:00:41;;;;;;;23.93;19.67;;;20.00;99.90;;;;;;5094785;28;20288;-76
2023/06/22 08:03:07;;;;;;;21.60;19.13;;;20.00;99.90;;;;;;5094552;28;20646;-77
2023/06/22 08:05:32;;;;;;;22.03;18.63;;;20.00;99.90;;;;;;5094046;28;20177;-77
2023/06/22 08:07:58;;;;;;;21.33;19.03;;;20.00;99.90;;;;;;5093721;28;20696;-77
2023/06/22 08:10:23;;;;;;;21.87;18.13;;;20.00;99.90;;;;;;5093481;28;20524;-77
2023/06/22 08:12:49;;;;;;;20.20;18.20;;;19.90;99.90;;;;;;5094940;28;20324;-76
2023/06/22 08:15:15;;;;;;;20.53;18.20;;;20.00;99.90;;;;;;5094799;28;20174;-76
2023/06/22 08:17:40;;;;;;;21.90;18.80;;;20.00;99.90;;;;;;5094861;28;20166;-77
2023/06/22 08:20:11;;;;;;;20.97;18.80;;;20.10;99.90;;;;;;5094483;28;20166;-76
2023/06/22 08:22:37;;;;;;;20.60;17.80;;;20.10;99.90;;;;;;5093828;28;20321;-76
2023/06/22 08:25:04;;;;;;;20.80;18.77;;;20.20;99.90;;;;;;5093171;28;20194;-77
2023/06/22 08:27:32;;;;;;;22.53;19.13;;;20.30;99.90;;;;;;5094713;28;20175;-77
2023/06/22 08:29:58;;;;;;;22.23;19.40;;;20.40;99.90;;;;;;5094663;28;20641;-76
2023/06/22 08:32:26;;;;;;;22.17;19.77;;;20.40;99.90;;;;;;5092867;28;20197;-78
2023/06/22 08:34:53;;;;;;;21.67;19.30;;;20.50;99.90;;;;;;5092549;28;20171;-77
2023/06/22 08:37:19;;;;;;;22.07;18.57;;;20.50;99.90;;;;;;5094286;28;20193;-76
2023/06/22 08:39:44;;;;;;;20.33;18.33;;;20.60;99.90;;;;;;5092322;28;20178;-77
2023/06/22 08:42:10;;;;;;;19.33;17.37;;;20.60;99.90;;;;;;5092964;28;20594;-75
2023/06/22 08:44:36;;;;;;;21.27;19.07;;;20.70;99.90;;;;;;5093034;28;20194;-76
2023/06/22 08:47:02;;;;;;;22.33;19.17;;;20.70;99.90;;;;;;5094298;28;20171;-77
2023/06/22 08:49:27;;;;;;;23.07;19.13;;;20.70;99.90;;;;;;5093009;28;20182;-77
2023/06/22 08:51:55;;;;;;;20.97;18.77;;;20.70;99.90;;;;;;5093334;28;20174;-76
2023/06/22 08:54:21;;;;;;;20.97;18.80;;;20.80;99.90;;;;;;5093561;28;20300;-77
2023/06/22 08:56:47;;;;;;;22.00;19.53;;;20.90;99.90;;;;;;5093089;28;20261;-77
2023/06/22 08:59:12;;;;;;;22.00;19.70;;;21.00;99.90;;;;;;5096316;28;20197;-77
2023/06/22 09:01:38;;;;;;;21.90;19.50;;;21.10;99.90;;;;;;5100198;28;20172;-77
2023/06/22 09:04:05;;;;;;;19.67;17.77;;;21.30;99.90;;;;;;5098701;28;20224;-76
2023/06/22 09:06:32;;;;;;;20.87;17.87;;;21.40;99.90;;;;;;5094202;28;20174;-78
2023/06/22 09:08:59;;;;;;;22.03;18.37;;;21.50;99.90;;;;;;5093609;28;20231;-77
2023/06/22 09:11:25;;;;;;;20.67;18.53;;;21.60;99.90;;;;;;5093473;28;20584;-78
2023/06/22 09:13:51;;;;;;;21.40;18.30;;;21.70;99.90;;;;;;5092423;28;20306;-78
2023/06/22 09:16:17;;;;;;;21.53;19.23;;;21.90;99.90;;;;;;5093073;28;20181;-78
2023/06/22 09:18:47;;;;;;;19.10;17.20;;;22.00;99.90;;;;;;5099564;28;20174;-78
2023/06/22 09:21:12;;;;;;;19.70;17.57;;;22.30;99.90;;;;;;5107187;28;20177;-78
2023/06/22 09:23:38;;;;;;;18.53;16.43;;;22.40;99.90;;;;;;5101146;28;20190;-77
2023/06/22 09:26:04;;;;;;;24.13;17.10;;;22.70;99.90;;;;;;5094350;28;20186;-78
2023/06/22 09:28:29;;;;;;;18.27;15.53;;;22.90;99.90;;;;;;5093555;28;20174;-79
2023/06/22 09:30:58;;;;;;;16.73;14.27;;;23.00;99.90;;;;;;5093391;28;20661;-77
2023/06/22 09:33:24;;;;;;;17.30;15.13;;;23.10;99.90;;;;;;5092371;28;20259;-77
2023/06/22 09:35:50;;;;;;;15.60;13.63;;;23.20;99.90;;;;;;5093412;28;20532;-77
2023/06/22 09:38:16;;;;;;;18.07;16.17;;;23.30;99.90;;;;;;5093312;28;20161;-77
2023/06/22 09:40:42;;;;;;;17.43;13.10;;;23.30;99.90;;;;;;5092269;28;20701;-77
2023/06/22 09:43:07;;;;;;;14.73;13.03;;;23.40;99.90;;;;;;5091793;28;20291;-75
2023/06/22 09:45:33;;;;;;;16.37;14.73;;;23.50;99.90;;;;;;5093020;28;20178;-77
2023/06/22 09:47:58;;;;;;;20.10;14.13;;;23.50;99.90;;;;;;5092641;28;20269;-77
2023/06/22 09:50:24;;;;;;;15.13;13.60;;;23.50;99.90;;;;;;5093061;28;20578;-77
2023/06/22 09:52:54;;;;;;;15.13;13.30;;;23.50;84.90;;;;;;5091792;28;20213;-79
2023/06/22 09:55:20;;;;;;;14.80;12.10;;;23.60;99.90;;;;;;5092766;28;20171;-77
2023/06/22 09:57:46;;;;;;;13.07;11.30;;;23.80;99.90;;;;;;5092215;28;20186;-77
2023/06/22 10:00:13;;;;;;;13.47;12.03;;;23.70;99.90;;;;;;5092980;28;20646;-77
2023/06/22 10:02:39;;;;;;;13.10;11.43;;;23.80;36.00;;;;;;5093726;28;20166;-77
2023/06/22 10:05:05;;;;;;;14.10;10.73;;;23.90;99.90;;;;;;5092659;28;20183;-78
2023/06/22 10:07:31;;;;;;;13.70;10.50;;;24.00;79.30;;;;;;5092967;28;20174;-78
2023/06/22 10:09:56;;;;;;;12.47;10.50;;;24.10;93.60;;;;;;5094571;28;20182;-77
2023/06/22 10:12:22;;;;;;;14.87;10.07;;;24.00;1.00;;;;;;5094103;28;20197;-77
2023/06/22 10:14:47;;;;;;;10.37;9.27;;;24.10;1.00;;;;;;5093895;28;20222;-77
2023/06/22 10:17:13;;;;;;;12.43;9.17;;;24.10;1.00;;;;;;5098206;28;20162;-78
2023/06/22 10:19:38;;;;;;;14.73;10.40;;;24.20;1.00;;;;;;5098964;28;20623;-78
2023/06/22 10:22:05;;;;;;;12.37;9.23;;;24.20;1.00;;;;;;5099223;28;20626;-78
2023/06/22 10:24:30;;;;;;;9.73;8.83;;;24.30;1.00;;;;;;5100080;28;20206;-78
2023/06/22 10:26:56;;;;;;;9.97;8.70;;;24.40;1.00;;;;;;5099699;28;20205;-79
2023/06/22 10:29:21;;;;;;;10.90;9.80;;;24.40;1.00;;;;;;5112471;28;20162;-77
2023/06/22 10:31:47;;;;;;;13.30;10.33;;;24.40;1.00;;;;;;5108297;28;20265;-79
2023/06/22 10:34:12;;;;;;;11.77;9.30;;;24.30;1.00;;;;;;5099254;28;20206;-78
2023/06/22 10:36:39;;;;;;;10.03;8.80;;;24.30;1.00;;;;;;5099372;28;20174;-78
2023/06/22 10:39:04;;;;;;;14.37;9.80;;;24.30;1.00;;;;;;5112668;28;20178;-76
2023/06/22 10:41:30;;;;;;;11.07;8.30;;;24.40;1.00;;;;;;5117959;28;20173;-78
2023/06/22 10:43:56;;;;;;;13.30;10.73;;;24.40;1.00;;;;;;5117920;28;20190;-78
2023/06/22 10:46:23;;;;;;;10.77;9.67;;;24.30;1.00;;;;;;5116731;28;20657;-77
2023/06/22 10:48:49;;;;;;;10.27;9.00;;;24.20;1.00;;;;;;5119362;28;20158;-77
2023/06/22 10:51:14;;;;;;;12.70;9.20;;;24.20;1.00;;;;;;5118916;28;20177;-78
2023/06/22 10:53:40;;;;;;;12.50;9.87;;;24.20;1.00;;;;;;5119759;28;20208;-78
2023/06/22 10:56:06;;;;;;;12.27;10.20;;;24.10;1.00;;;;;;5105341;28;20220;-77
2023/06/22 10:58:31;;;;;;;10.73;9.63;;;24.10;1.00;;;;;;5104876;28;20647;-77
2023/06/22 11:00:58;;;;;;;9.77;8.77;;;24.00;1.00;;;;;;5100726;28;20189;-76
2023/06/22 11:03:24;;;;;;;11.20;10.00;;;24.10;29.40;;;;;;5097660;28;20543;-77
2023/06/22 11:05:49;;;;;;;14.47;8.57;;;23.90;1.00;;;;;;5107606;28;20185;-78
2023/06/22 11:08:15;;;;;;;11.17;8.73;;;23.90;70.50;;;;;;5105292;28;20173;-78
2023/06/22 11:10:41;;;;;;;12.60;9.97;;;23.80;99.90;;;;;;5104935;28;20170;-78
2023/06/22 11:13:09;;;;;;;10.23;9.23;;;23.80;99.90;;;;;;5102719;28;20246;-78
2023/06/22 11:15:35;;;;;;;13.33;9.90;;;23.70;99.90;;;;;;5104948;28;20516;-78
2023/06/22 11:18:00;;;;;;;13.03;10.10;;;23.60;99.90;;;;;;5104878;28;20174;-78
2023/06/22 11:20:26;;;;;;;14.20;11.53;;;23.50;99.90;;;;;;5105493;28;20272;-78
2023/06/22 11:22:51;;;;;;;16.80;12.90;;;23.50;99.90;;;;;;5105432;28;20205;-79
2023/06/22 11:25:17;;;;;;;18.17;12.90;;;23.40;99.90;;;;;;5109161;28;20194;-78
2023/06/22 11:27:42;;;;;;;17.30;15.43;;;23.30;99.90;;;;;;5109348;28;20181;-79
2023/06/22 11:30:08;;;;;;;20.47;16.33;;;23.20;99.90;;;;;;5108264;28;20170;-78
2023/06/22 11:32:34;;;;;;;17.93;15.50;;;23.00;99.90;;;;;;5108621;28;20228;-79
2023/06/22 11:35:00;;;;;;;19.60;17.47;;;22.60;99.90;;;;;;5107081;28;20186;-79
2023/06/22 11:37:25;;;;;;;20.43;16.20;;;22.50;99.90;;;;;;5099095;28;20637;-80
2023/06/22 11:39:51;;;;;;;25.60;18.50;;;22.50;99.90;;;;;;5101325;28;20174;-78
2023/06/22 11:42:17;;;;;;;22.37;19.37;;;22.50;99.90;;;;;;5102945;28;20192;-79
2023/06/22 11:44:43;;;;;;;22.13;19.63;;;22.40;99.90;;;;;;5102502;28;20202;-79
2023/06/22 11:47:09;;;;;;;24.50;19.70;;;22.40;99.90;;;;;;5100812;28;20166;-78
2023/06/22 11:49:34;;;;;;;24.53;20.40;;;22.50;99.90;;;;;;5100095;28;20174;-80
2023/06/22 11:52:00;;;;;;;24.87;20.10;;;22.30;99.90;;;;;;5098607;28;20291;-79
2023/06/22 11:54:25;;;;;;;24.80;20.87;;;22.20;99.90;;;;;;5097149;28;20218;-80
2023/06/22 11:56:51;;;;;;;24.10;20.90;;;22.10;99.90;;;;;;5098138;28;20186;-80
2023/06/22 11:59:17;;;;;;;26.80;21.70;;;22.10;99.90;;;;;;5097450;28;20201;-81
2023/06/22 12:01:42;;;;;;;27.90;21.40;;;22.00;99.90;;;;;;5097139;28;20216;-79
2023/06/22 12:04:10;;;;;;;26.33;22.40;;;22.00;99.90;;;;;;5098021;28;20557;-80
2023/06/22 12:06:41;;;;;;;28.83;22.07;;;22.00;99.90;;;;;;5098029;28;20265;-80
2023/06/22 12:09:06;;;;;;;26.47;22.27;;;21.80;99.90;;;;;;5095004;28;20657;-80
2023/06/22 12:11:32;;;;;;;28.47;22.87;;;21.80;99.90;;;;;;5098085;28;20184;-81
2023/06/22 12:14:01;;;;;;;28.93;24.83;;;21.80;99.90;;;;;;5097223;28;20205;-80
2023/06/22 12:16:27;;;;;;;30.03;25.40;;;21.80;99.90;;;;;;5097963;28;20178;-81
2023/06/22 12:18:53;;;;;;;31.60;24.83;;;21.80;99.90;;;;;;5096767;28;20174;-81
2023/06/22 12:21:19;;;;;;;28.33;24.17;;;21.80;99.90;;;;;;5096695;28;20176;-81
2023/06/22 12:23:44;;;;;;;29.93;26.57;;;21.80;99.90;;;;;;5097892;28;20194;-81
2023/06/22 12:26:10;;;;;;;31.60;24.80;;;21.80;99.90;;;;;;5098922;28;20185;-82
2023/06/22 12:28:35;;;;;;;31.40;26.60;;;22.00;99.90;;;;;;5099414;28;20178;-81
2023/06/22 12:31:01;;;;;;;30.37;26.97;;;22.10;99.90;;;;;;5102134;28;20166;-81
2023/06/22 12:33:26;;;;;;;30.37;25.67;;;22.10;99.90;;;;;;5117884;28;20206;-79
2023/06/22 12:35:52;;;;;;;30.03;26.83;;;22.20;99.90;;;;;;5117190;28;20177;-82
2023/06/22 12:38:17;;;;;;;29.37;26.47;;;22.30;99.90;;;;;;5104368;28;20182;-81